Time;durP1;ratioP1;P1;durP2;ratioP2;P2;SDS_P1;SDS_P2;PMS_P1;PMS_P2;Temp;Humidity;BMP_temperature;BMP_pressure;BME280_temperature;BME280_humidity;BME280_pressure;Samples;Min_cycle;Max_cycle;Signal;HPM_P1;HPM_P2
2022/02/03 00:00:08;;;;;;;15.37;10.80;;;8.70;99.90;;;;;;5032164;28;20718;-62
2022/02/03 00:02:41;;;;;;;12.50;8.63;;;8.70;99.90;;;;;;5031880;28;20293;-62
2022/02/03 00:05:13;;;;;;;13.17;9.50;;;8.80;99.90;;;;;;5031481;28;20248;-62
2022/02/03 00:07:49;;;;;;;15.07;9.13;;;8.90;99.90;;;;;;5031581;28;20206;-62
2022/02/03 00:10:34;;;;;;;15.77;9.93;;;9.00;99.90;;;;;;5031475;28;20660;-62
2022/02/03 00:24:20;;;;;;;11.80;7.57;;;8.70;99.90;;;;;;5035012;28;20181;-62
2022/02/03 00:27:00;;;;;;;8.83;7.37;;;8.70;99.90;;;;;;5035029;28;20238;-62
2022/02/03 00:29:46;;;;;;;10.20;7.83;;;8.70;99.90;;;;;;5035059;28;20202;-62
2022/02/03 00:32:38;;;;;;;8.30;6.97;;;8.70;99.90;;;;;;5035118;28;20206;-62
2022/02/03 00:35:24;;;;;;;11.40;8.37;;;8.70;99.90;;;;;;5034406;28;20232;-62
2022/02/03 00:38:04;;;;;;;9.33;8.13;;;8.80;99.90;;;;;;5035006;28;20740;-62
2022/02/03 00:48:56;;;;;;;10.07;8.27;;;8.60;99.90;;;;;;5034741;28;20202;-62
2022/02/03 00:51:24;;;;;;;10.80;8.03;;;8.60;99.90;;;;;;5034697;28;20197;-64
2022/02/03 00:53:52;;;;;;;11.67;8.60;;;8.70;99.90;;;;;;5034232;28;20247;-62
2022/02/03 00:56:23;;;;;;;12.97;8.67;;;8.60;99.90;;;;;;5034336;28;20226;-62
2022/02/03 00:58:53;;;;;;;13.00;9.40;;;8.60;99.90;;;;;;5034603;28;20304;-62
2022/02/03 01:01:23;;;;;;;11.17;9.07;;;8.50;99.90;;;;;;5034582;28;20236;-62
2022/02/03 01:03:53;;;;;;;11.23;8.63;;;8.50;99.90;;;;;;5034200;28;20252;-62
2022/02/03 01:06:22;;;;;;;10.60;8.00;;;8.50;99.90;;;;;;5034483;28;20226;-62
2022/02/03 01:08:54;;;;;;;8.67;7.57;;;8.50;99.90;;;;;;5034198;28;20581;-62
2022/02/03 01:11:26;;;;;;;11.07;8.07;;;8.50;99.90;;;;;;5034544;28;20225;-62
2022/02/03 01:14:02;;;;;;;9.03;7.53;;;8.50;99.90;;;;;;5033923;28;20313;-62
2022/02/03 01:16:44;;;;;;;9.33;7.53;;;8.50;99.90;;;;;;5034018;28;20747;-62
2022/02/03 01:19:35;;;;;;;8.80;7.20;;;8.40;99.90;;;;;;5034163;28;20202;-62
2022/02/03 01:44:43;;;;;;;8.27;7.07;;;9.10;99.90;;;;;;5033788;28;20209;-61
2022/02/03 01:47:25;;;;;;;11.27;8.97;;;9.10;99.90;;;;;;5033838;28;20280;-61
2022/02/03 01:52:41;;;;;;;9.93;8.40;;;9.20;99.90;;;;;;5033580;28;20205;-61
2022/02/03 01:55:10;;;;;;;8.33;7.17;;;9.20;99.90;;;;;;5033395;28;20234;-61
2022/02/03 01:57:48;;;;;;;9.17;7.47;;;9.10;99.90;;;;;;5033774;28;20218;-62
2022/02/03 02:00:17;;;;;;;9.33;7.23;;;9.10;99.90;;;;;;5033373;28;20267;-62
2022/02/03 02:02:51;;;;;;;8.53;7.30;;;9.20;99.90;;;;;;5033252;28;20213;-61
2022/02/03 02:05:36;;;;;;;10.70;8.60;;;9.20;99.90;;;;;;5033113;28;20221;-61
2022/02/03 02:08:11;;;;;;;8.93;7.37;;;9.20;99.90;;;;;;5033395;28;20252;-61
2022/02/03 02:11:05;;;;;;;11.80;8.20;;;9.30;99.90;;;;;;5033171;28;20233;-61
2022/02/03 02:13:57;;;;;;;9.50;7.27;;;9.30;99.90;;;;;;5032935;28;20294;-62
2022/02/03 02:16:43;;;;;;;9.67;8.00;;;9.10;99.90;;;;;;5032835;28;20324;-61
2022/02/03 02:19:24;;;;;;;9.87;8.40;;;9.10;99.90;;;;;;5033286;28;20280;-61
2022/02/03 02:38:57;;;;;;;9.97;7.87;;;9.10;99.90;;;;;;5032726;28;20206;-61
2022/02/03 02:44:37;;;;;;;10.90;7.63;;;9.20;99.90;;;;;;5026656;28;20255;-61
2022/02/03 02:47:13;;;;;;;10.47;7.27;;;9.20;99.90;;;;;;5032714;28;20217;-61
2022/02/03 02:49:50;;;;;;;9.70;7.40;;;9.30;99.90;;;;;;5032595;28;20209;-61
2022/02/03 02:52:24;;;;;;;10.97;8.43;;;9.30;99.90;;;;;;5032393;28;20217;-61
2022/02/03 02:55:07;;;;;;;8.03;6.97;;;9.40;99.90;;;;;;5031863;28;20736;-61
2022/02/03 03:03:43;;;;;;;10.10;7.17;;;9.60;99.90;;;;;;5029933;28;20249;-61
2022/02/03 03:31:32;;;;;;;6.20;4.53;;;10.00;99.90;;;;;;5031954;28;20289;-61
2022/02/03 03:34:11;;;;;;;4.40;4.00;;;10.00;99.90;;;;;;5031664;28;20712;-63
2022/02/03 03:36:41;;;;;;;4.90;4.40;;;10.00;99.90;;;;;;5032212;28;20229;-62
2022/02/03 03:39:12;;;;;;;5.20;4.67;;;9.90;99.90;;;;;;5032023;28;20206;-62
2022/02/03 03:41:43;;;;;;;5.77;4.50;;;9.90;99.90;;;;;;5032005;28;20190;-62
2022/02/03 03:44:14;;;;;;;4.93;4.43;;;9.90;99.90;;;;;;5031688;28;20206;-62
2022/02/03 03:46:42;;;;;;;5.60;5.10;;;9.90;99.90;;;;;;5031640;28;20226;-62
2022/02/03 03:49:23;;;;;;;5.37;4.73;;;9.90;99.90;;;;;;5031862;28;20206;-62
2022/02/03 03:51:59;;;;;;;5.20;4.70;;;9.90;99.90;;;;;;5031873;28;20213;-62
2022/02/03 03:54:35;;;;;;;4.70;4.30;;;10.00;99.90;;;;;;5032210;28;20267;-62
2022/02/03 03:57:13;;;;;;;4.63;4.20;;;10.00;99.90;;;;;;5035891;28;20704;-62
2022/02/03 04:29:20;;;;;;;5.57;3.90;;;10.10;99.90;;;;;;5035235;28;20201;-62
2022/02/03 04:32:25;;;;;;;5.40;4.67;;;10.10;99.90;;;;;;5035000;28;20213;-62
2022/02/03 04:38:16;;;;;;;3.80;3.50;;;10.30;99.90;;;;;;5014517;28;20206;-62
2022/02/03 04:44:07;;;;;;;4.27;3.53;;;10.50;99.90;;;;;;5033773;28;20516;-62
2022/02/03 04:56:00;;;;;;;4.10;3.70;;;10.40;99.90;;;;;;5033754;28;20272;-62
2022/02/03 04:59:13;;;;;;;4.17;3.50;;;10.50;99.90;;;;;;5034680;28;20217;-62
2022/02/03 05:02:06;;;;;;;5.57;3.40;;;10.50;99.90;;;;;;5034684;28;20197;-62
2022/02/03 05:04:50;;;;;;;3.90;3.57;;;10.60;99.90;;;;;;5034388;28;20210;-61
2022/02/03 05:07:47;;;;;;;4.10;3.70;;;10.50;99.90;;;;;;5034598;28;20268;-62
2022/02/03 05:10:40;;;;;;;3.50;3.20;;;10.40;99.90;;;;;;5034335;28;20217;-62
2022/02/03 05:13:38;;;;;;;3.67;3.37;;;10.40;99.90;;;;;;5034460;28;20233;-62
2022/02/03 05:16:39;;;;;;;4.10;3.30;;;10.40;99.90;;;;;;5034282;28;20286;-62
2022/02/03 05:19:41;;;;;;;3.53;3.23;;;10.40;99.90;;;;;;5034523;28;20206;-62
2022/02/03 05:25:55;;;;;;;3.73;3.37;;;10.50;99.90;;;;;;5032460;28;20210;-62
2022/02/03 05:44:25;;;;;;;22.43;15.83;;;9.90;99.90;;;;;;5033619;28;20206;-62
2022/02/03 05:47:09;;;;;;;8.57;6.67;;;9.90;99.90;;;;;;5033595;28;20226;-62
2022/02/03 05:52:45;;;;;;;5.07;4.10;;;9.80;99.90;;;;;;5024146;28;20236;-62
2022/02/03 06:03:52;;;;;;;6.10;5.50;;;9.50;99.90;;;;;;5022344;28;20305;-61
2022/02/03 06:09:08;;;;;;;5.67;4.37;;;9.50;99.90;;;;;;5032328;28;20726;-63
2022/02/03 06:14:23;;;;;;;4.73;4.23;;;9.50;99.90;;;;;;5032886;28;20357;-62
2022/02/03 06:17:04;;;;;;;4.40;4.00;;;9.50;99.90;;;;;;5032811;28;20332;-63
2022/02/03 06:22:40;;;;;;;7.83;4.80;;;9.40;99.90;;;;;;5019950;28;20202;-62
2022/02/03 06:27:52;;;;;;;5.87;5.07;;;9.40;99.90;;;;;;5032881;28;20252;-62
2022/02/03 06:30:20;;;;;;;6.07;5.03;;;9.30;99.90;;;;;;5032589;28;20701;-62
2022/02/03 06:32:49;;;;;;;6.77;4.50;;;9.30;99.90;;;;;;5032758;28;20214;-65
2022/02/03 06:35:17;;;;;;;13.90;10.13;;;9.30;99.90;;;;;;5032387;28;20237;-63
2022/02/03 06:37:45;;;;;;;6.77;5.13;;;9.30;99.90;;;;;;5032538;28;20573;-62
2022/02/03 06:40:12;;;;;;;4.50;4.10;;;9.30;99.90;;;;;;5032389;28;20206;-62
2022/02/03 06:42:39;;;;;;;4.53;3.80;;;9.30;99.90;;;;;;5032600;28;20570;-62
2022/02/03 06:45:12;;;;;;;5.37;4.83;;;9.30;99.90;;;;;;5032367;28;20226;-62
2022/02/03 06:47:50;;;;;;;4.97;4.47;;;9.40;99.90;;;;;;5032436;28;20218;-62
2022/02/03 06:50:22;;;;;;;4.60;4.00;;;9.40;99.90;;;;;;5032668;28;20205;-62
2022/02/03 06:52:54;;;;;;;5.40;4.80;;;9.40;99.90;;;;;;5032556;28;20210;-62
2022/02/03 06:55:28;;;;;;;4.43;4.00;;;9.40;99.90;;;;;;5032052;28;20230;-62
2022/02/03 06:57:59;;;;;;;5.33;4.70;;;9.40;99.90;;;;;;5032491;28;20268;-62
2022/02/03 07:00:29;;;;;;;5.07;3.90;;;9.40;99.90;;;;;;5032225;28;20214;-62
2022/02/03 07:02:59;;;;;;;4.77;4.30;;;9.50;99.90;;;;;;5032354;28;20637;-62
2022/02/03 07:05:27;;;;;;;4.60;4.10;;;9.60;99.90;;;;;;5032008;28;20218;-62
2022/02/03 07:07:54;;;;;;;4.10;3.70;;;9.70;99.90;;;;;;5032230;28;20210;-62
2022/02/03 07:10:22;;;;;;;4.53;4.13;;;9.70;99.90;;;;;;5032208;28;20229;-62
2022/02/03 07:12:48;;;;;;;4.30;3.90;;;9.80;99.90;;;;;;5032326;28;20476;-62
2022/02/03 07:15:15;;;;;;;4.80;4.27;;;9.90;99.90;;;;;;5031591;28;20318;-62
2022/02/03 07:17:42;;;;;;;4.37;3.93;;;9.90;99.90;;;;;;5032207;28;20214;-63
2022/02/03 07:20:13;;;;;;;4.30;3.63;;;9.90;99.90;;;;;;5032027;28;20268;-62
2022/02/03 07:22:42;;;;;;;4.13;3.60;;;10.10;99.90;;;;;;5032225;28;20210;-62
2022/02/03 07:25:09;;;;;;;4.87;4.10;;;10.10;99.90;;;;;;5031844;28;20272;-62
2022/02/03 07:27:36;;;;;;;5.57;3.53;;;10.20;99.90;;;;;;5032115;28;20287;-62
2022/02/03 07:30:04;;;;;;;5.07;4.40;;;10.20;99.90;;;;;;5031057;28;20217;-62
2022/02/03 07:32:31;;;;;;;5.67;4.00;;;10.30;99.90;;;;;;5032007;28;20213;-62
2022/02/03 07:34:58;;;;;;;8.70;4.33;;;10.40;99.90;;;;;;5031926;28;20230;-62
2022/02/03 07:37:27;;;;;;;4.17;3.60;;;10.50;99.90;;;;;;5032137;28;20252;-62
2022/02/03 07:39:55;;;;;;;6.67;5.30;;;10.60;99.90;;;;;;5032233;28;20249;-62
2022/02/03 07:42:22;;;;;;;4.97;4.00;;;10.70;99.90;;;;;;5031804;28;20309;-62
2022/02/03 07:44:49;;;;;;;4.50;3.73;;;10.80;99.90;;;;;;5031835;28;20202;-62
2022/02/03 07:47:16;;;;;;;6.53;4.10;;;10.80;99.90;;;;;;5031798;28;20308;-62
2022/02/03 07:49:43;;;;;;;4.70;3.60;;;10.90;99.90;;;;;;5031740;28;20206;-62
2022/02/03 07:52:11;;;;;;;4.73;4.20;;;11.00;99.90;;;;;;5031927;28;20206;-63
2022/02/03 07:54:38;;;;;;;4.27;3.87;;;11.10;99.90;;;;;;5031208;28;20210;-62
2022/02/03 07:57:07;;;;;;;5.20;3.77;;;11.10;99.90;;;;;;5031350;28;20211;-62
2022/02/03 07:59:33;;;;;;;4.93;4.43;;;11.20;99.90;;;;;;5031731;28;20297;-62
2022/02/03 08:02:00;;;;;;;5.50;4.40;;;11.20;99.90;;;;;;5031616;28;20206;-62
2022/02/03 08:04:30;;;;;;;3.87;3.50;;;11.30;99.90;;;;;;5031392;28;20202;-62
2022/02/03 08:06:57;;;;;;;6.33;3.60;;;11.30;99.90;;;;;;5032088;28;20230;-62
2022/02/03 08:09:28;;;;;;;3.40;3.10;;;11.40;99.90;;;;;;5031496;28;20260;-62
2022/02/03 08:11:55;;;;;;;3.77;3.23;;;11.40;99.90;;;;;;5031813;28;20558;-62
2022/02/03 08:14:30;;;;;;;3.97;3.57;;;11.50;99.90;;;;;;5031496;28;20211;-62
2022/02/03 08:17:02;;;;;;;3.30;3.00;;;11.60;99.90;;;;;;5031261;28;20321;-62
2022/02/03 08:19:35;;;;;;;4.00;3.60;;;11.70;99.90;;;;;;5031262;28;20272;-62
2022/02/03 08:22:06;;;;;;;3.50;3.20;;;11.80;99.90;;;;;;5031274;28;20214;-62
2022/02/03 08:24:43;;;;;;;4.50;4.10;;;11.90;99.90;;;;;;5031335;28;20202;-62
2022/02/03 08:27:35;;;;;;;3.20;2.83;;;12.00;99.90;;;;;;5031406;28;20250;-62
2022/02/03 08:30:19;;;;;;;3.50;3.00;;;12.00;99.90;;;;;;5031102;28;20210;-62
2022/02/03 08:32:48;;;;;;;3.03;2.70;;;12.10;99.90;;;;;;5031698;28;20206;-62
2022/02/03 08:35:33;;;;;;;3.57;2.93;;;12.20;99.90;;;;;;5031035;28;20234;-62
2022/02/03 08:38:06;;;;;;;5.43;3.07;;;12.20;99.90;;;;;;5031501;28;20669;-62
2022/02/03 08:40:44;;;;;;;2.83;2.40;;;12.30;99.90;;;;;;5031980;28;20210;-62
2022/02/03 08:43:11;;;;;;;4.23;2.60;;;12.30;99.90;;;;;;5034900;28;20210;-62
2022/02/03 08:45:39;;;;;;;6.10;2.53;;;12.40;99.90;;;;;;5034547;28;20226;-62
2022/02/03 08:48:05;;;;;;;3.37;2.40;;;12.50;99.90;;;;;;5034924;28;20217;-62
2022/02/03 08:50:33;;;;;;;3.33;2.70;;;12.50;99.90;;;;;;5034898;28;20210;-62
2022/02/03 08:53:05;;;;;;;5.80;4.50;;;12.50;99.90;;;;;;5034500;28;20210;-62
2022/02/03 08:55:39;;;;;;;2.87;2.47;;;12.50;99.90;;;;;;5034098;28;20692;-62
2022/02/03 09:57:03;;;;;;;2.70;2.10;;;14.20;99.90;;;;;;5033130;28;20226;-62
2022/02/03 09:59:37;;;;;;;2.43;2.00;;;14.10;99.90;;;;;;5033059;28;20216;-62
2022/02/03 10:02:10;;;;;;;2.13;1.70;;;14.20;99.90;;;;;;5033175;28;20203;-62
2022/02/03 10:04:45;;;;;;;2.70;2.03;;;14.20;99.90;;;;;;5032921;28;20297;-62
2022/02/03 10:07:20;;;;;;;1.87;1.73;;;14.20;99.90;;;;;;5033787;28;20296;-64
2022/02/03 10:09:48;;;;;;;3.40;2.10;;;14.40;99.90;;;;;;5033259;28;20227;-62
2022/02/03 10:12:15;;;;;;;3.13;1.90;;;14.50;99.90;;;;;;5033260;28;20229;-62
2022/02/03 10:14:44;;;;;;;4.00;2.50;;;14.60;99.90;;;;;;5032205;28;20206;-62
2022/02/03 10:17:11;;;;;;;1.97;1.60;;;14.70;99.90;;;;;;5033270;28;20233;-62
2022/02/03 10:19:42;;;;;;;4.10;1.70;;;14.70;99.90;;;;;;5033142;28;20264;-62
2022/02/03 10:22:15;;;;;;;2.87;1.60;;;14.50;99.90;;;;;;5033159;28;20210;-62
2022/02/03 10:24:45;;;;;;;2.60;1.93;;;14.40;99.90;;;;;;5032615;28;20586;-62
2022/02/03 10:27:26;;;;;;;2.00;1.70;;;14.40;99.90;;;;;;5032838;28;20206;-62
2022/02/03 10:30:21;;;;;;;2.30;1.67;;;14.30;99.90;;;;;;5032765;28;20205;-62
2022/02/03 10:32:48;;;;;;;2.50;1.70;;;14.30;99.90;;;;;;5032758;28;20249;-62
2022/02/03 10:35:23;;;;;;;2.60;1.90;;;14.40;99.90;;;;;;5032249;28;20222;-62
2022/02/03 10:41:25;;;;;;;2.67;1.73;;;14.40;99.90;;;;;;5032709;28;20248;-62
2022/02/03 10:49:58;;;;;;;3.13;2.17;;;14.40;99.90;;;;;;5026344;28;20196;-62
2022/02/03 11:01:15;;;;;;;1.63;1.33;;;14.70;99.90;;;;;;5032656;28;20332;-61
2022/02/03 11:04:03;;;;;;;4.50;2.00;;;14.80;99.90;;;;;;5032471;28;20684;-61
2022/02/03 11:06:38;;;;;;;1.40;1.23;;;14.80;99.90;;;;;;5032100;28;20234;-61
2022/02/03 11:09:13;;;;;;;1.40;1.30;;;14.80;99.90;;;;;;5032289;28;20213;-61
2022/02/03 11:11:49;;;;;;;1.63;1.10;;;14.80;99.90;;;;;;5032477;28;20845;-61
2022/02/03 11:14:18;;;;;;;1.73;1.40;;;14.80;99.90;;;;;;5032193;28;20271;-60
2022/02/03 11:16:46;;;;;;;1.20;1.10;;;14.90;99.90;;;;;;5064003;22;20656;-60
2022/02/03 11:19:15;;;;;;;1.23;1.10;;;15.00;99.90;;;;;;5044321;28;20256;-60
2022/02/03 11:21:47;;;;;;;1.90;1.03;;;15.00;99.90;;;;;;5052935;28;20213;-60
2022/02/03 11:24:22;;;;;;;2.00;1.40;;;15.00;99.90;;;;;;5052644;28;20202;-60
2022/02/03 11:27:07;;;;;;;1.30;1.20;;;14.90;99.90;;;;;;5052849;28;20770;-60
2022/02/03 11:32:39;;;;;;;1.23;1.07;;;14.90;99.90;;;;;;5052353;28;20276;-59
2022/02/03 11:41:38;;;;;;;4.60;1.40;;;14.90;99.90;;;;;;5052480;28;20231;-60
2022/02/03 11:44:56;;;;;;;1.50;1.40;;;14.90;99.90;;;;;;5052360;28;20205;-59
2022/02/03 11:56:27;;;;;;;1.67;1.57;;;15.10;99.90;;;;;;5052392;28;20275;-59
2022/02/03 11:59:20;;;;;;;3.17;1.80;;;15.20;99.90;;;;;;5052872;28;20212;-60
2022/02/03 12:02:02;;;;;;;2.53;1.60;;;15.30;99.90;;;;;;5053163;28;20213;-59
2022/02/03 12:04:51;;;;;;;1.60;1.50;;;15.30;99.90;;;;;;5053698;28;20681;-59
2022/02/03 12:07:33;;;;;;;2.20;1.20;;;15.30;99.90;;;;;;5052277;28;20248;-59
2022/02/03 12:10:41;;;;;;;2.13;1.47;;;15.20;99.90;;;;;;5052596;28;20210;-60
2022/02/03 12:13:35;;;;;;;1.70;1.60;;;15.10;99.90;;;;;;5052148;28;20249;-60
2022/02/03 12:16:21;;;;;;;3.37;1.43;;;15.10;99.90;;;;;;5052863;28;20229;-59
2022/02/03 12:19:14;;;;;;;1.50;1.40;;;15.10;99.90;;;;;;5056515;28;20213;-59
2022/02/03 12:21:47;;;;;;;2.50;1.80;;;15.00;99.90;;;;;;5055844;28;20252;-59
2022/02/03 12:24:26;;;;;;;1.93;1.37;;;15.20;99.90;;;;;;5055877;28;20304;-60
2022/02/03 12:27:01;;;;;;;1.40;1.30;;;15.30;99.90;;;;;;5055637;28;20225;-60
2022/02/03 12:29:34;;;;;;;3.13;1.63;;;15.50;99.90;;;;;;5055481;28;20255;-60
2022/02/03 12:32:11;;;;;;;4.43;3.23;;;15.40;99.90;;;;;;5055592;28;20245;-60
2022/02/03 12:37:49;;;;;;;1.93;1.73;;;15.30;99.90;;;;;;5055597;28;20236;-60
2022/02/03 12:40:30;;;;;;;4.03;3.53;;;15.40;99.90;;;;;;5034512;28;20674;-59
2022/02/03 12:43:13;;;;;;;6.20;3.70;;;15.50;99.90;;;;;;5035977;28;20206;-58
2022/02/03 12:45:41;;;;;;;1.60;1.50;;;15.40;99.90;;;;;;5035490;28;20230;-59
2022/02/03 12:48:08;;;;;;;3.27;1.53;;;15.50;99.90;;;;;;5035522;28;20206;-58
2022/02/03 12:50:38;;;;;;;1.57;1.47;;;15.50;99.90;;;;;;5036028;28;20210;-59
2022/02/03 12:53:06;;;;;;;1.60;1.50;;;15.50;99.90;;;;;;5035834;28;20619;-59
2022/02/03 12:55:35;;;;;;;4.57;1.43;;;15.40;99.90;;;;;;5036456;28;20646;-59
2022/02/03 12:58:05;;;;;;;2.67;2.17;;;15.30;99.90;;;;;;5036714;28;20206;-60
2022/02/03 13:00:40;;;;;;;1.87;1.60;;;15.30;99.90;;;;;;5036123;28;20220;-59
2022/02/03 13:03:10;;;;;;;2.30;2.10;;;15.30;99.90;;;;;;5035618;28;20210;-60
2022/02/03 13:05:41;;;;;;;2.67;1.70;;;15.30;99.90;;;;;;5035312;28;20237;-58
2022/02/03 13:08:10;;;;;;;1.70;1.57;;;15.30;99.90;;;;;;5035162;28;20213;-58
2022/02/03 13:10:39;;;;;;;1.60;1.50;;;15.20;99.90;;;;;;5036041;28;20297;-60
2022/02/03 13:13:19;;;;;;;1.80;1.57;;;15.20;99.90;;;;;;5035569;28;20230;-60
2022/02/03 13:15:46;;;;;;;1.97;1.73;;;15.20;99.90;;;;;;5035273;28;20233;-60
2022/02/03 13:18:19;;;;;;;2.13;1.50;;;15.20;99.90;;;;;;5036047;28;20221;-59
2022/02/03 13:20:55;;;;;;;2.97;2.67;;;15.20;99.90;;;;;;5036751;28;20210;-59
2022/02/03 13:23:26;;;;;;;2.80;1.93;;;15.10;99.90;;;;;;5035971;28;20202;-60
2022/02/03 13:26:05;;;;;;;2.20;1.80;;;15.10;99.90;;;;;;5034595;28;20605;-61
2022/02/03 13:28:45;;;;;;;2.07;1.60;;;15.10;99.90;;;;;;5033448;28;20229;-60
2022/02/03 13:31:30;;;;;;;1.33;1.13;;;15.10;99.90;;;;;;5034987;28;20588;-61
2022/02/03 13:34:02;;;;;;;1.73;1.30;;;15.20;99.90;;;;;;5034808;28;20308;-61
2022/02/03 13:36:40;;;;;;;3.63;1.13;;;15.10;99.90;;;;;;5034066;28;20320;-61
2022/02/03 13:39:11;;;;;;;1.60;1.30;;;15.10;99.90;;;;;;5034501;28;20214;-60
2022/02/03 13:41:41;;;;;;;2.30;1.50;;;15.00;99.90;;;;;;5034188;28;20202;-60
2022/02/03 13:44:10;;;;;;;1.40;1.27;;;15.00;99.90;;;;;;5034265;28;20272;-61
2022/02/03 13:46:39;;;;;;;3.90;1.50;;;14.90;99.90;;;;;;5033950;28;20226;-62
2022/02/03 13:49:14;;;;;;;1.73;1.40;;;14.70;99.90;;;;;;5033827;28;20214;-60
2022/02/03 13:51:45;;;;;;;1.90;1.10;;;14.70;99.90;;;;;;5033913;28;20229;-61
2022/02/03 13:54:54;;;;;;;1.90;1.40;;;14.60;99.90;;;;;;5033977;28;20191;-65
2022/02/03 14:20:11;;;;;;;2.07;1.40;;;14.20;99.90;;;;;;5022541;28;20720;-60
2022/02/03 14:22:58;;;;;;;1.10;0.90;;;14.20;99.90;;;;;;5033109;28;20609;-60
2022/02/03 14:28:11;;;;;;;3.73;0.90;;;14.20;99.90;;;;;;5033250;28;20684;-59
2022/02/03 14:30:43;;;;;;;1.60;1.00;;;14.10;99.90;;;;;;5033213;28;20214;-60
2022/02/03 14:33:10;;;;;;;3.67;1.27;;;14.10;99.90;;;;;;5032975;28;20237;-60
2022/02/03 14:35:38;;;;;;;1.20;0.90;;;14.10;99.90;;;;;;5032691;28;20280;-60
2022/02/03 14:38:15;;;;;;;5.50;5.00;;;14.10;99.90;;;;;;5032818;28;20226;-60
2022/02/03 14:40:54;;;;;;;3.30;2.80;;;14.10;99.90;;;;;;5033059;28;20210;-60
2022/02/03 14:43:21;;;;;;;1.53;1.30;;;14.20;99.90;;;;;;5033060;28;20207;-59
2022/02/03 14:45:48;;;;;;;2.57;2.00;;;14.20;99.90;;;;;;5032660;28;20789;-60
2022/02/03 14:48:15;;;;;;;1.93;1.43;;;14.10;99.90;;;;;;5033202;28;20219;-61
2022/02/03 14:50:43;;;;;;;3.30;1.87;;;14.10;99.90;;;;;;5034048;28;20666;-60
2022/02/03 14:53:16;;;;;;;4.03;1.50;;;14.10;99.90;;;;;;5032714;28;20206;-60
2022/02/03 14:58:29;;;;;;;2.53;1.00;;;14.00;99.90;;;;;;5032713;28;20364;-59
2022/02/03 15:00:57;;;;;;;2.83;1.30;;;14.00;99.90;;;;;;5032924;28;20209;-61
2022/02/03 15:03:25;;;;;;;1.23;1.13;;;13.90;99.90;;;;;;5032809;28;20210;-60
2022/02/03 15:05:53;;;;;;;1.20;1.07;;;13.80;99.90;;;;;;5032353;28;20230;-59
2022/02/03 15:08:22;;;;;;;2.17;1.20;;;13.80;99.90;;;;;;5032257;28;20202;-58
2022/02/03 15:11:04;;;;;;;1.77;1.30;;;13.70;99.90;;;;;;5032313;28;20296;-60
2022/02/03 15:13:41;;;;;;;2.23;1.70;;;13.70;99.90;;;;;;5032211;28;20638;-59
2022/02/03 15:16:09;;;;;;;2.40;1.57;;;13.60;99.90;;;;;;5031845;28;20737;-59
2022/02/03 15:18:37;;;;;;;3.03;1.90;;;13.60;99.90;;;;;;5031889;28;20264;-60
2022/02/03 15:21:05;;;;;;;2.73;1.20;;;13.60;99.90;;;;;;5032368;28;20202;-59
2022/02/03 15:23:31;;;;;;;2.30;1.80;;;13.50;99.90;;;;;;5032259;28;20206;-60
2022/02/03 15:25:59;;;;;;;2.90;1.40;;;13.40;99.90;;;;;;5032007;28;20717;-60
2022/02/03 15:28:27;;;;;;;5.47;3.03;;;13.40;99.90;;;;;;5032011;28;20198;-60
2022/02/03 15:30:54;;;;;;;5.10;2.37;;;13.40;99.90;;;;;;5032024;28;20312;-60
2022/02/03 15:33:25;;;;;;;8.63;5.10;;;13.30;99.90;;;;;;5031933;28;20736;-60
2022/02/03 15:35:56;;;;;;;5.13;2.00;;;13.20;99.90;;;;;;5032045;28;20317;-60
2022/02/03 15:38:25;;;;;;;3.20;2.50;;;13.20;99.90;;;;;;5032009;28;20230;-60
2022/02/03 15:40:55;;;;;;;4.23;2.30;;;13.10;99.90;;;;;;5032243;28;20202;-60
2022/02/03 15:43:27;;;;;;;2.37;1.90;;;13.00;99.90;;;;;;5031827;28;20298;-61
2022/02/03 15:45:58;;;;;;;5.23;2.03;;;13.00;99.90;;;;;;5031625;28;20304;-60
2022/02/03 15:48:35;;;;;;;3.63;2.43;;;12.90;99.90;;;;;;5032114;28;20206;-60
2022/02/03 15:51:13;;;;;;;4.40;2.40;;;12.80;99.90;;;;;;5033854;28;20214;-60
2022/02/03 15:56:49;;;;;;;4.67;3.30;;;12.70;99.90;;;;;;5035548;28;20692;-61
2022/02/03 16:18:52;;;;;;;3.30;2.63;;;12.10;99.90;;;;;;4974322;28;20788;-59
2022/02/03 16:21:29;;;;;;;11.23;5.30;;;11.90;99.90;;;;;;4974266;28;20208;-59
2022/02/03 16:24:09;;;;;;;3.97;3.57;;;11.90;99.90;;;;;;5005015;28;20232;-59
2022/02/03 16:26:58;;;;;;;3.73;3.00;;;11.80;99.90;;;;;;5034944;28;20229;-60
2022/02/03 16:40:59;;;;;;;8.30;5.03;;;11.00;99.90;;;;;;5035191;28;20209;-60
2022/02/03 16:51:58;;;;;;;5.10;3.17;;;10.60;99.90;;;;;;5035043;28;20277;-60
2022/02/03 16:54:25;;;;;;;3.13;2.50;;;10.60;99.90;;;;;;5034766;28;20296;-61
2022/02/03 16:56:57;;;;;;;7.67;5.10;;;10.50;99.90;;;;;;5034135;28;20230;-61
2022/02/03 16:59:25;;;;;;;4.93;3.30;;;10.60;99.90;;;;;;5034752;28;20210;-61
2022/02/03 17:01:51;;;;;;;5.57;2.73;;;10.70;99.90;;;;;;5034638;28;20261;-60
2022/02/03 17:04:19;;;;;;;8.57;4.73;;;10.70;99.90;;;;;;5034579;28;20210;-60
2022/02/03 17:06:47;;;;;;;5.30;3.23;;;10.70;99.90;;;;;;5034085;28;20226;-60
2022/02/03 17:09:14;;;;;;;6.50;2.70;;;10.70;99.90;;;;;;5034311;28;20206;-60
2022/02/03 17:11:41;;;;;;;6.57;2.53;;;10.70;99.90;;;;;;5034120;28;20670;-61
2022/02/03 17:14:08;;;;;;;4.20;2.63;;;10.70;99.90;;;;;;5034369;28;20225;-61
2022/02/03 17:16:35;;;;;;;4.87;2.60;;;10.70;99.90;;;;;;5034450;28;20238;-61
2022/02/03 17:19:02;;;;;;;4.23;3.20;;;10.60;99.90;;;;;;5034254;28;20234;-59
2022/02/03 17:21:31;;;;;;;5.37;3.10;;;10.60;99.90;;;;;;5034373;28;20297;-58
2022/02/03 17:23:58;;;;;;;7.43;3.10;;;10.60;99.90;;;;;;5033993;28;20323;-59
2022/02/03 17:26:31;;;;;;;8.97;3.83;;;10.50;99.90;;;;;;5033934;28;20268;-59
2022/02/03 17:29:04;;;;;;;10.20;5.27;;;10.60;99.90;;;;;;5034171;28;20210;-60
2022/02/03 17:31:47;;;;;;;10.57;7.37;;;10.50;99.90;;;;;;5034055;28;20238;-60
2022/02/03 17:52:13;;;;;;;7.80;4.07;;;10.40;99.90;;;;;;5034148;28;20218;-60
2022/02/03 18:06:09;;;;;;;5.07;4.13;;;10.40;99.90;;;;;;5033218;28;20244;-58
2022/02/03 18:08:31;;;;;;;10.33;5.37;;;10.50;99.90;;;;;;5032737;28;20216;-58
2022/02/03 18:11:20;;;;;;;8.00;4.40;;;10.40;99.90;;;;;;5033346;28;20259;-58
2022/02/03 18:30:20;;;;;;;6.27;3.53;;;10.40;99.90;;;;;;5031117;28;20211;-59
2022/02/03 18:33:17;;;;;;;9.50;3.67;;;10.50;99.90;;;;;;5032813;28;20662;-58
2022/02/03 18:35:55;;;;;;;6.27;4.00;;;10.50;99.90;;;;;;5032401;28;20226;-58
2022/02/03 18:50:51;;;;;;;5.77;4.00;;;10.80;99.90;;;;;;5205558;27;20525;-57
2022/02/03 18:53:26;;;;;;;9.07;5.50;;;10.90;99.90;;;;;;5192748;27;20288;-57
2022/02/03 18:56:02;;;;;;;9.57;4.17;;;11.00;99.90;;;;;;5185660;27;20252;-58
2022/02/03 18:58:37;;;;;;;6.07;4.70;;;11.00;99.90;;;;;;5172238;27;20617;-58
2022/02/03 19:01:21;;;;;;;6.33;4.50;;;11.00;99.90;;;;;;5172105;27;20246;-57
2022/02/03 19:09:54;;;;;;;7.97;5.57;;;10.90;99.90;;;;;;5122212;27;20237;-58
2022/02/03 19:26:45;;;;;;;7.37;4.70;;;11.00;99.90;;;;;;5140760;27;20224;-58
2022/02/03 19:57:24;;;;;;;5.20;4.70;;;11.20;99.90;;;;;;5143536;27;20266;-58
2022/02/03 20:03:26;;;;;;;5.97;4.60;;;11.20;99.90;;;;;;5156659;27;20209;-59
2022/02/03 20:05:40;;;;;;;7.13;6.30;;;11.20;99.90;;;;;;5156055;27;20604;-58
2022/02/03 20:08:13;;;;;;;11.03;8.03;;;11.10;99.90;;;;;;5156530;27;20294;-58
2022/02/03 20:10:42;;;;;;;5.27;4.27;;;11.00;99.90;;;;;;5157644;27;20202;-62
2022/02/03 20:13:09;;;;;;;4.50;3.97;;;10.80;99.90;;;;;;5158686;27;20614;-59
2022/02/03 20:15:39;;;;;;;5.83;3.97;;;10.80;99.90;;;;;;5157508;27;20229;-61
2022/02/03 20:18:11;;;;;;;5.60;4.07;;;10.90;99.90;;;;;;5157172;27;20204;-60
2022/02/03 20:20:37;;;;;;;7.13;4.50;;;10.90;99.90;;;;;;5156624;27;20289;-61
2022/02/03 20:23:08;;;;;;;4.73;3.77;;;10.90;99.90;;;;;;5156196;27;20263;-59
2022/02/03 20:25:36;;;;;;;5.13;3.70;;;11.00;99.90;;;;;;5156202;27;20226;-60
2022/02/03 20:28:03;;;;;;;4.97;4.20;;;11.00;99.90;;;;;;5156842;27;20249;-59
2022/02/03 20:30:30;;;;;;;4.33;3.93;;;11.00;99.90;;;;;;5156541;27;20202;-61
2022/02/03 20:32:58;;;;;;;3.90;3.50;;;11.10;99.90;;;;;;5155922;27;20696;-57
2022/02/03 20:35:25;;;;;;;5.33;3.70;;;11.10;99.90;;;;;;5155808;27;20279;-58
2022/02/03 20:37:51;;;;;;;4.87;4.37;;;11.10;99.90;;;;;;5156162;27;20202;-59
2022/02/03 20:40:18;;;;;;;5.47;4.27;;;11.10;99.90;;;;;;5156237;27;20259;-58
2022/02/03 20:42:45;;;;;;;5.83;4.37;;;11.10;99.90;;;;;;5155869;27;20198;-58
2022/02/03 20:45:12;;;;;;;4.70;3.93;;;11.10;99.90;;;;;;5155857;27;20572;-58
2022/02/03 20:47:39;;;;;;;4.37;3.97;;;11.00;99.90;;;;;;5155469;27;20217;-58
2022/02/03 20:50:11;;;;;;;7.63;4.83;;;11.10;99.90;;;;;;5155842;27;20213;-58
2022/02/03 20:52:38;;;;;;;8.03;4.33;;;11.10;99.90;;;;;;5156003;27;20233;-59
2022/02/03 20:55:05;;;;;;;4.87;4.20;;;11.10;99.90;;;;;;5156117;27;20217;-59
2022/02/03 20:57:32;;;;;;;8.30;5.50;;;11.10;99.90;;;;;;5156250;27;20206;-58
2022/02/03 21:00:13;;;;;;;7.43;5.33;;;11.10;99.90;;;;;;5156673;27;20209;-58
2022/02/03 21:02:45;;;;;;;6.73;4.90;;;11.10;99.90;;;;;;5156008;27;20204;-58
2022/02/03 21:05:16;;;;;;;6.00;4.90;;;11.10;99.90;;;;;;5156134;27;20207;-58